createdAt,value
2023-04-01T00:01:27.371Z,100.00
2023-04-01T00:04:30.102Z,100.00
2023-04-01T00:07:34.125Z,100.00
2023-04-01T00:10:36.819Z,100.00
2023-04-01T00:13:39.702Z,100.00
2023-04-01T00:16:42.474Z,100.00
2023-04-01T00:19:45.160Z,100.00
2023-04-01T00:22:47.713Z,100.00
2023-04-01T00:25:50.629Z,100.00
2023-04-01T00:28:53.442Z,100.00
2023-04-01T00:31:57.457Z,100.00
2023-04-01T00:35:02.634Z,100.00
2023-04-01T00:38:05.548Z,100.00
2023-04-01T00:41:08.248Z,100.00
2023-04-01T00:44:23.259Z,100.00
2023-04-01T00:47:27.767Z,100.00
2023-04-01T00:50:32.004Z,100.00
2023-04-01T00:53:37.733Z,100.00
2023-04-01T00:56:44.483Z,100.00
2023-04-01T00:59:50.794Z,100.00
2023-04-01T01:02:53.830Z,100.00
2023-04-01T01:06:10.745Z,100.00
2023-04-01T01:09:58.058Z,100.00
2023-04-01T01:13:32.482Z,100.00
2023-04-01T01:16:43.676Z,100.00
2023-04-01T01:20:25.279Z,100.00
2023-04-01T01:23:59.982Z,100.00
2023-04-01T01:27:14.911Z,100.00
2023-04-01T01:30:48.784Z,100.00
2023-04-01T01:34:19.296Z,100.00
2023-04-01T01:37:24.878Z,100.00
2023-04-01T01:40:29.651Z,100.00
2023-04-01T01:43:43.972Z,100.00
2023-04-01T01:46:51.030Z,100.00
2023-04-01T01:49:54.436Z,100.00
2023-04-01T01:53:09.126Z,100.00
2023-04-01T01:56:16.848Z,100.00
2023-04-01T01:59:22.045Z,100.00
2023-04-01T02:02:25.611Z,100.00
2023-04-01T02:05:31.921Z,100.00
2023-04-01T02:09:11.838Z,100.00
2023-04-01T02:12:17.927Z,100.00
2023-04-01T02:15:21.637Z,100.00
2023-04-01T02:18:25.651Z,100.00
2023-04-01T02:21:32.048Z,100.00
2023-04-01T02:24:36.690Z,100.00
2023-04-01T02:27:40.285Z,100.00
2023-04-01T02:30:44.239Z,100.00
2023-04-01T02:33:47.928Z,100.00
2023-04-01T02:36:51.707Z,100.00
2023-04-01T02:39:54.391Z,100.00
2023-04-01T02:42:56.996Z,100.00
2023-04-01T02:45:59.604Z,100.00
2023-04-01T02:49:02.137Z,100.00
2023-04-01T02:52:05.864Z,100.00
2023-04-01T02:55:08.980Z,100.00
2023-04-01T02:58:11.815Z,100.00
2023-04-01T03:01:15.164Z,100.00
2023-04-01T03:04:17.861Z,100.00
2023-04-01T03:07:20.673Z,100.00
2023-04-01T03:10:25.520Z,100.00
2023-04-01T03:13:28.315Z,100.00
2023-04-01T03:16:31.083Z,100.00
2023-04-01T03:19:33.729Z,100.00
2023-04-01T03:22:43.059Z,100.00
2023-04-01T03:25:46.222Z,100.00
2023-04-01T03:28:48.953Z,100.00
2023-04-01T03:31:51.695Z,100.00
2023-04-01T03:34:54.479Z,100.00
2023-04-01T03:37:57.223Z,100.00
2023-04-01T03:41:00.286Z,100.00
2023-04-01T03:44:03.268Z,100.00
2023-04-01T03:47:05.931Z,100.00
2023-04-01T03:50:09.645Z,100.00
2023-04-01T03:53:12.432Z,100.00
2023-04-01T03:56:17.706Z,100.00
2023-04-01T03:59:20.354Z,100.00
2023-04-01T04:02:23.065Z,100.00
2023-04-01T04:05:29.790Z,100.00
2023-04-01T04:08:35.647Z,100.00
2023-04-01T04:11:38.212Z,100.00
2023-04-01T04:14:41.206Z,100.00
2023-04-01T04:17:45.077Z,100.00
2023-04-01T04:20:49.675Z,100.00
2023-04-01T04:23:54.962Z,100.00
2023-04-01T04:26:57.638Z,100.00
2023-04-01T04:30:00.377Z,100.00
2023-04-01T04:33:03.093Z,100.00
2023-04-01T04:36:06.257Z,100.00
2023-04-01T04:39:08.987Z,100.00
2023-04-01T04:42:14.305Z,100.00
2023-04-01T04:45:17.053Z,100.00
2023-04-01T04:48:28.575Z,100.00
2023-04-01T04:51:31.185Z,100.00
2023-04-01T04:54:33.875Z,100.00
2023-04-01T04:57:38.336Z,100.00
2023-04-01T05:00:41.182Z,100.00
2023-04-01T05:03:48.053Z,100.00
2023-04-01T05:06:50.864Z,100.00
2023-04-01T05:09:53.949Z,100.00
2023-04-01T05:12:56.561Z,100.00
2023-04-01T05:15:59.888Z,100.00
2023-04-01T05:19:02.423Z,100.00
2023-04-01T05:22:06.189Z,100.00
2023-04-01T05:25:09.247Z,100.00
2023-04-01T05:28:13.615Z,100.00
2023-04-01T05:31:18.184Z,100.00
2023-04-01T05:34:25.549Z,100.00
2023-04-01T05:37:28.211Z,100.00
2023-04-01T05:40:34.186Z,100.00
2023-04-01T05:43:39.226Z,100.00
2023-04-01T05:47:10.495Z,100.00
2023-04-01T05:50:13.882Z,100.00
2023-04-01T05:53:19.470Z,100.00
2023-04-01T05:56:22.769Z,100.00
2023-04-01T05:59:27.402Z,100.00
2023-04-01T06:02:30.175Z,100.00
2023-04-01T06:05:42.358Z,100.00
2023-04-01T06:08:44.926Z,100.00
2023-04-01T06:12:05.645Z,100.00
2023-04-01T06:15:33.780Z,100.00
2023-04-01T06:18:54.419Z,100.00
2023-04-01T06:22:14.741Z,100.00
2023-04-01T06:26:03.623Z,100.00
2023-04-01T06:29:17.861Z,100.00
2023-04-01T06:32:44.397Z,100.00
2023-04-01T06:35:54.412Z,100.00
2023-04-01T06:39:27.256Z,100.00
2023-04-01T06:42:44.109Z,100.00
2023-04-01T06:46:21.182Z,100.00
2023-04-01T06:50:04.019Z,100.00
2023-04-01T06:54:06.503Z,100.00
2023-04-01T06:57:56.509Z,100.00
2023-04-01T07:01:02.180Z,100.00
2023-04-01T07:04:30.807Z,100.00
2023-04-01T07:07:33.488Z,100.00
2023-04-01T07:10:59.598Z,100.00
2023-04-01T07:14:33.574Z,99.91
2023-04-01T07:17:46.735Z,98.41
2023-04-01T07:20:50.067Z,97.23
2023-04-01T07:23:54.359Z,98.01
2023-04-01T07:27:21.386Z,96.82
2023-04-01T07:30:26.020Z,95.84
2023-04-01T07:33:39.123Z,95.03
2023-04-01T07:36:41.737Z,95.52
2023-04-01T07:39:52.808Z,94.23
2023-04-01T07:43:18.951Z,94.54
2023-04-01T07:46:52.614Z,94.16
2023-04-01T07:50:28.909Z,91.95
2023-04-01T07:53:44.972Z,91.45
2023-04-01T07:57:00.207Z,92.58
2023-04-01T08:00:43.870Z,91.06
2023-04-01T08:04:06.375Z,90.50
2023-04-01T08:07:19.482Z,90.30
2023-04-01T08:11:17.718Z,91.39
2023-04-01T08:14:57.405Z,87.69
2023-04-01T08:18:29.086Z,85.56
2023-04-01T08:21:45.114Z,83.63
2023-04-01T08:24:49.699Z,83.55
2023-04-01T08:28:23.626Z,77.88
2023-04-01T08:31:35.888Z,77.62
2023-04-01T08:34:45.092Z,74.93
2023-04-01T08:41:40.068Z,75.83
2023-04-01T08:45:14.630Z,74.59
2023-04-01T08:48:30.715Z,73.72
2023-04-01T08:52:11.853Z,73.13
2023-04-01T08:55:55.800Z,72.51
2023-04-01T08:59:14.441Z,70.33
2023-04-01T09:02:35.463Z,71.32
2023-04-01T09:06:02.262Z,68.97
2023-04-01T09:09:32.279Z,67.15
2023-04-01T09:12:56.816Z,67.45
2023-04-01T09:16:22.930Z,67.06
2023-04-01T09:19:26.247Z,66.64
2023-04-01T09:22:37.119Z,67.86
2023-04-01T09:26:08.485Z,65.78
2023-04-01T09:29:36.690Z,64.37
2023-04-01T09:32:51.676Z,65.36
2023-04-01T09:36:15.731Z,64.12
2023-04-01T09:39:37.531Z,63.30
2023-04-01T09:43:01.912Z,61.79
2023-04-01T09:46:22.175Z,61.15
2023-04-01T09:49:38.052Z,60.86
2023-04-01T09:52:41.577Z,61.09
2023-04-01T09:55:59.253Z,59.85
2023-04-01T09:59:40.687Z,60.21
2023-04-01T10:03:04.420Z,61.46
2023-04-01T10:06:22.808Z,61.32
2023-04-01T10:09:50.980Z,64.42
2023-04-01T10:13:05.504Z,62.14
2023-04-01T10:16:26.852Z,62.63
2023-04-01T10:19:42.886Z,63.28
2023-04-01T10:23:00.652Z,62.70
2023-04-01T10:26:26.627Z,64.60
2023-04-01T10:30:07.910Z,62.21
2023-04-01T10:33:35.966Z,61.39
2023-04-01T10:36:52.300Z,59.76
2023-04-01T10:40:09.249Z,60.56
2023-04-01T10:43:39.602Z,59.23
2023-04-01T10:46:54.139Z,60.75
2023-04-01T10:50:06.479Z,60.15
2023-04-01T10:53:18.271Z,61.31
2023-04-01T10:56:59.679Z,64.28
2023-04-01T11:00:30.969Z,65.73
2023-04-01T11:04:17.444Z,63.73
2023-04-01T11:08:26.716Z,62.71
2023-04-01T11:11:52.584Z,61.98
2023-04-01T11:15:22.130Z,59.72
2023-04-01T11:18:49.405Z,59.36
2023-04-01T11:22:16.305Z,58.39
2023-04-01T11:26:00.965Z,57.89
2023-04-01T11:29:24.800Z,58.88
2023-04-01T11:32:54.995Z,57.08
2023-04-01T11:36:03.991Z,57.32
2023-04-01T11:39:30.696Z,57.34
2023-04-01T11:42:58.335Z,57.86
2023-04-01T11:46:31.147Z,58.05
2023-04-01T11:50:15.547Z,54.77
2023-04-01T11:53:36.348Z,53.08
2023-04-01T11:56:57.688Z,54.96
2023-04-01T12:00:03.569Z,52.41
2023-04-01T12:03:27.820Z,54.01
2023-04-01T12:06:36.736Z,54.64
2023-04-01T12:10:04.836Z,53.43
2023-04-01T12:13:10.024Z,53.41
2023-04-01T12:16:37.659Z,52.81
2023-04-01T12:20:13.300Z,52.43
2023-04-01T12:23:55.932Z,51.85
2023-04-01T12:27:20.598Z,51.51
2023-04-01T12:30:49.402Z,51.16
2023-04-01T12:34:11.823Z,50.40
2023-04-01T12:37:30.543Z,52.06
2023-04-01T12:41:04.096Z,52.15
2023-04-01T12:44:54.143Z,53.88
2023-04-01T12:48:15.695Z,52.68
2023-04-01T12:51:35.145Z,52.91
2023-04-01T12:54:37.706Z,51.88
2023-04-01T12:57:53.269Z,50.44
2023-04-01T13:01:42.320Z,51.68
2023-04-01T13:05:13.732Z,48.97
2023-04-01T13:08:24.932Z,47.95
2023-04-01T13:11:38.942Z,48.63
2023-04-01T13:14:59.123Z,47.95
2023-04-01T13:18:37.605Z,49.01
2023-04-01T13:22:00.871Z,45.99
2023-04-01T13:25:11.953Z,47.51
2023-04-01T13:28:23.128Z,49.34
2023-04-01T13:31:47.363Z,44.60
2023-04-01T13:35:07.839Z,45.46
2023-04-01T13:38:16.551Z,48.37
2023-04-01T13:41:56.573Z,45.85
2023-04-01T13:45:04.948Z,43.65
2023-04-01T13:48:32.154Z,45.10
2023-04-01T13:51:41.961Z,42.64
2023-04-01T13:54:47.527Z,44.90
2023-04-01T13:58:27.387Z,52.76
2023-04-01T14:01:50.786Z,54.46
2023-04-01T14:05:02.445Z,49.96
2023-04-01T14:08:26.438Z,47.47
2023-04-01T14:11:34.743Z,48.06
2023-04-01T14:15:01.856Z,43.21
2023-04-01T14:18:13.346Z,49.17
2023-04-01T14:21:30.489Z,53.36
2023-04-01T14:24:52.185Z,53.45
2023-04-01T14:28:00.551Z,53.63
2023-04-01T14:31:31.593Z,54.10
2023-04-01T14:34:49.324Z,56.01
2023-04-01T14:38:11.664Z,57.17
2023-04-01T14:41:36.138Z,53.44
2023-04-01T14:45:03.988Z,53.76
2023-04-01T14:48:37.520Z,46.84
2023-04-01T14:51:43.263Z,42.06
2023-04-01T14:54:47.761Z,40.52
2023-04-01T14:58:20.816Z,42.56
2023-04-01T15:01:49.589Z,43.31
2023-04-01T15:05:22.773Z,42.97
2023-04-01T15:08:44.685Z,47.54
2023-04-01T15:12:08.592Z,43.57
2023-04-01T15:15:17.255Z,42.76
2023-04-01T15:18:40.966Z,39.77
2023-04-01T15:22:21.941Z,42.94
2023-04-01T15:25:42.886Z,43.34
2023-04-01T15:29:00.133Z,47.49
2023-04-01T15:32:16.248Z,53.07
2023-04-01T15:35:37.455Z,51.47
2023-04-01T15:39:00.278Z,46.66
2023-04-01T15:42:43.341Z,42.95
2023-04-01T15:46:20.270Z,44.15
2023-04-01T15:49:38.835Z,43.44
2023-04-01T15:52:56.423Z,41.57
2023-04-01T15:56:17.400Z,42.08
2023-04-01T15:59:22.670Z,42.87
2023-04-01T16:02:32.164Z,42.54
2023-04-01T16:05:56.769Z,43.17
2023-04-01T16:09:12.351Z,42.13
2023-04-01T16:12:24.876Z,44.36
2023-04-01T16:15:40.342Z,43.22
2023-04-01T16:18:49.923Z,43.17
2023-04-01T16:22:32.158Z,41.99
2023-04-01T16:25:38.339Z,42.41
2023-04-01T16:28:56.637Z,50.73
2023-04-01T16:32:41.500Z,57.79
2023-04-01T16:36:24.362Z,59.18
2023-04-01T16:39:51.844Z,60.65
2023-04-01T16:43:06.940Z,62.61
2023-04-01T16:46:38.349Z,64.75
2023-04-01T16:49:49.145Z,66.46
2023-04-01T16:53:16.811Z,66.64
2023-04-01T16:56:28.819Z,67.32
2023-04-01T17:00:14.744Z,69.25
2023-04-01T17:03:39.452Z,70.10
2023-04-01T17:06:48.357Z,70.17
2023-04-01T17:09:59.021Z,70.58
2023-04-01T17:13:29.686Z,72.00
2023-04-01T17:16:58.688Z,73.81
2023-04-01T17:20:43.578Z,73.63
2023-04-01T17:23:53.416Z,74.30
2023-04-01T17:27:14.648Z,73.93
2023-04-01T17:30:20.037Z,72.03
2023-04-01T17:33:46.046Z,72.54
2023-04-01T17:37:03.753Z,72.77
2023-04-01T17:40:09.741Z,73.19
2023-04-01T17:43:37.223Z,74.48
2023-04-01T17:47:12.416Z,74.83
2023-04-01T17:50:15.276Z,75.73
2023-04-01T17:54:01.546Z,76.40
2023-04-01T17:57:16.546Z,77.91
2023-04-01T18:00:27.263Z,78.89
2023-04-01T18:04:06.683Z,78.80
2023-04-01T18:07:28.110Z,78.67
2023-04-01T18:10:43.324Z,77.90
2023-04-01T18:14:23.852Z,77.85
2023-04-01T18:17:54.376Z,77.58
2023-04-01T18:21:26.641Z,77.98
2023-04-01T18:24:30.722Z,78.36
2023-04-01T18:27:39.583Z,78.10
2023-04-01T18:30:43.126Z,77.82
2023-04-01T18:34:07.489Z,78.76
2023-04-01T18:37:31.790Z,78.54
2023-04-01T18:40:42.977Z,79.01
2023-04-01T18:44:19.695Z,79.29
2023-04-01T18:47:44.028Z,79.80
2023-04-01T18:51:11.648Z,79.59
2023-04-01T18:54:34.184Z,79.44
2023-04-01T18:57:55.251Z,80.31
2023-04-01T19:01:06.709Z,79.88
2023-04-01T19:04:35.008Z,80.65
2023-04-01T19:07:37.814Z,80.93
2023-04-01T19:11:10.256Z,80.99
2023-04-01T19:14:21.267Z,80.88
2023-04-01T19:17:55.635Z,82.40
2023-04-01T19:21:08.095Z,83.72
2023-04-01T19:24:20.860Z,85.25
2023-04-01T19:27:37.628Z,85.60
2023-04-01T19:31:03.013Z,86.51
2023-04-01T19:34:27.294Z,88.48
2023-04-01T19:37:33.604Z,89.39
2023-04-01T19:40:42.563Z,89.41
2023-04-01T19:43:49.846Z,89.75
2023-04-01T19:46:59.582Z,89.75
2023-04-01T19:50:26.711Z,89.46
2023-04-01T19:53:36.975Z,88.54
2023-04-01T19:56:59.910Z,88.16
2023-04-01T20:00:18.548Z,87.15
2023-04-01T20:03:36.842Z,86.53
2023-04-01T20:06:50.754Z,87.04
2023-04-01T20:10:12.129Z,87.65
2023-04-01T20:13:41.100Z,87.93
2023-04-01T20:16:51.819Z,88.52
2023-04-01T20:20:09.988Z,89.79
2023-04-01T20:23:25.442Z,89.75
2023-04-01T20:26:40.872Z,88.59
2023-04-01T20:30:18.508Z,86.36
2023-04-01T20:33:28.115Z,85.31
2023-04-01T20:36:53.515Z,83.59
2023-04-01T20:40:14.851Z,82.88
2023-04-01T20:43:51.500Z,81.84
2023-04-01T20:46:57.182Z,80.67
2023-04-01T20:50:27.625Z,80.83
2023-04-01T20:53:43.023Z,78.59
2023-04-01T20:57:19.901Z,79.64
2023-04-01T21:00:54.603Z,78.90
2023-04-01T21:04:30.616Z,77.91
2023-04-01T21:07:53.433Z,77.43
2023-04-01T21:11:13.857Z,76.65
2023-04-01T21:14:44.122Z,77.02
2023-04-01T21:17:52.866Z,77.09
2023-04-01T21:20:58.348Z,77.49
2023-04-01T21:24:12.986Z,76.77
2023-04-01T21:27:37.948Z,75.33
2023-04-01T21:31:18.773Z,74.71
2023-04-01T21:34:45.190Z,75.21
2023-04-01T21:37:59.663Z,74.32
2023-04-01T21:41:43.585Z,74.95
2023-04-01T21:45:04.666Z,75.72
2023-04-01T21:48:42.583Z,76.68
2023-04-01T21:52:04.610Z,76.77
2023-04-01T21:55:33.419Z,78.09
2023-04-01T21:59:05.633Z,78.51
2023-04-01T22:02:22.769Z,78.33
2023-04-01T22:05:28.398Z,77.97
2023-04-01T22:09:04.285Z,77.78
2023-04-01T22:12:16.083Z,77.24
2023-04-01T22:15:47.532Z,77.51
2023-04-01T22:19:14.302Z,77.26
2023-04-01T22:22:23.305Z,75.92
2023-04-01T22:25:41.601Z,75.11
2023-04-01T22:29:00.915Z,74.39
2023-04-01T22:32:30.026Z,73.97
2023-04-01T22:35:53.998Z,74.97
2023-04-01T22:39:04.176Z,74.80
2023-04-01T22:42:28.783Z,75.45
2023-04-01T22:45:58.926Z,76.81
2023-04-01T22:49:10.831Z,76.79
2023-04-01T22:52:34.781Z,75.37
2023-04-01T22:55:53.701Z,73.65
2023-04-01T22:59:18.668Z,72.62
2023-04-01T23:02:31.170Z,71.33
2023-04-01T23:05:36.529Z,73.21
2023-04-01T23:09:08.994Z,73.84
2023-04-01T23:12:18.006Z,74.04
2023-04-01T23:15:24.095Z,73.90
2023-04-01T23:18:37.584Z,75.28
2023-04-01T23:21:51.690Z,76.48
2023-04-01T23:25:34.882Z,75.04
2023-04-01T23:29:00.693Z,74.38
2023-04-01T23:32:05.133Z,73.47
2023-04-01T23:35:17.860Z,73.21
2023-04-01T23:38:22.694Z,73.11
2023-04-01T23:41:33.745Z,72.70
2023-04-01T23:44:37.562Z,72.34
2023-04-01T23:47:42.084Z,72.18
2023-04-01T23:50:45.465Z,72.65
2023-04-01T23:53:57.625Z,73.33
2023-04-01T23:57:11.653Z,73.26
